createdAt,value
2022-08-18T00:01:15.798Z,25.85
2022-08-18T00:03:52.991Z,27.55
2022-08-18T00:05:51.312Z,22.13
2022-08-18T00:07:54.914Z,31.23
2022-08-18T00:09:58.778Z,34.08
2022-08-18T00:12:07.370Z,30.45
2022-08-18T00:14:22.288Z,26.48
2022-08-18T00:16:26.338Z,28.98
2022-08-18T00:18:30.386Z,24.35
2022-08-18T00:20:34.068Z,34.65
2022-08-18T00:22:37.451Z,26.02
2022-08-18T00:24:28.132Z,29.70
2022-08-18T00:26:36.280Z,25.60
2022-08-18T00:28:41.524Z,27.83
2022-08-18T00:30:45.197Z,32.88
2022-08-18T00:32:52.969Z,25.80
2022-08-18T00:34:56.804Z,21.63
2022-08-18T00:37:00.355Z,20.83
2022-08-18T00:39:05.234Z,27.92
2022-08-18T00:41:08.323Z,25.15
2022-08-18T00:43:19.427Z,33.65
2022-08-18T00:45:29.227Z,29.02
2022-08-18T00:47:41.602Z,26.90
2022-08-18T00:49:48.634Z,19.63
2022-08-18T00:51:58.398Z,27.92
2022-08-18T00:54:06.768Z,24.10
2022-08-18T00:56:22.257Z,26.55
2022-08-18T00:58:32.409Z,26.45
2022-08-18T01:00:40.869Z,22.10
2022-08-18T01:02:51.543Z,26.92
2022-08-18T01:05:10.667Z,16.70
2022-08-18T01:07:20.772Z,24.45
2022-08-18T01:09:24.949Z,22.60
2022-08-18T01:11:15.607Z,24.75
2022-08-18T01:13:20.282Z,20.30
2022-08-18T01:15:29.387Z,25.85
2022-08-18T01:17:34.866Z,19.83
2022-08-18T01:19:38.327Z,20.83
2022-08-18T01:22:02.066Z,23.83
2022-08-18T01:24:11.026Z,17.80
2022-08-18T01:26:16.053Z,22.00
2022-08-18T01:28:18.981Z,24.10
2022-08-18T01:30:23.857Z,23.85
2022-08-18T01:32:26.879Z,15.60
2022-08-18T01:34:29.895Z,22.33
2022-08-18T01:36:34.864Z,17.02
2022-08-18T01:38:39.084Z,19.67
2022-08-18T01:41:11.134Z,20.95
2022-08-18T01:43:06.493Z,23.85
2022-08-18T01:45:12.323Z,19.92
2022-08-18T01:47:16.193Z,16.55
2022-08-18T01:49:19.654Z,19.48
2022-08-18T01:51:36.291Z,21.05
2022-08-18T01:53:43.407Z,21.58
2022-08-18T01:55:47.881Z,15.93
2022-08-18T01:57:50.906Z,24.00
2022-08-18T01:59:54.894Z,23.17
2022-08-18T02:01:57.974Z,23.67
2022-08-18T02:04:34.028Z,18.50
2022-08-18T02:06:46.455Z,18.45
2022-08-18T02:08:53.967Z,35.58
2022-08-18T02:10:59.442Z,21.83
2022-08-18T02:13:02.066Z,22.92
2022-08-18T02:15:07.185Z,25.02
2022-08-18T02:17:14.111Z,19.23
2022-08-18T02:19:18.162Z,19.75
2022-08-18T02:21:22.155Z,21.13
2022-08-18T02:23:12.994Z,21.80
2022-08-18T02:25:06.937Z,23.17
2022-08-18T02:26:59.321Z,19.45
2022-08-18T02:28:49.957Z,29.45
2022-08-18T02:30:40.730Z,25.00
2022-08-18T02:32:32.802Z,20.08
2022-08-18T02:36:15.226Z,20.40
2022-08-18T02:38:07.680Z,24.15
2022-08-18T02:39:58.544Z,20.80
2022-08-18T02:41:49.461Z,21.52
2022-08-18T02:43:42.653Z,26.33
2022-08-18T02:45:33.174Z,19.40
2022-08-18T02:47:23.953Z,20.60
2022-08-18T02:49:14.687Z,25.63
2022-08-18T02:51:07.986Z,20.65
2022-08-18T02:52:58.500Z,25.85
2022-08-18T02:54:49.555Z,19.00
2022-08-18T02:56:42.372Z,20.88
2022-08-18T02:58:33.776Z,19.83
2022-08-18T03:00:25.911Z,18.98
2022-08-18T03:02:16.709Z,22.50
2022-08-18T03:04:14.987Z,23.40
2022-08-18T03:06:06.912Z,24.42
2022-08-18T03:07:57.599Z,22.42
2022-08-18T03:09:48.521Z,22.83
2022-08-18T03:11:39.482Z,23.63
2022-08-18T03:13:30.417Z,23.50
2022-08-18T03:15:21.183Z,25.92
2022-08-18T03:17:13.276Z,19.85
2022-08-18T03:20:55.091Z,25.10
2022-08-18T03:22:45.958Z,21.95
2022-08-18T03:24:37.889Z,28.63
2022-08-18T03:26:30.529Z,19.63
2022-08-18T03:28:21.507Z,21.77
2022-08-18T03:30:12.772Z,21.55
2022-08-18T03:32:06.851Z,20.88
2022-08-18T03:34:00.188Z,26.55
2022-08-18T03:35:51.312Z,24.75
2022-08-18T03:37:48.139Z,20.13
2022-08-18T03:39:40.144Z,20.70
2022-08-18T03:41:58.692Z,21.45
2022-08-18T03:43:50.824Z,22.30
2022-08-18T03:45:42.370Z,18.67
2022-08-18T03:47:33.256Z,24.98
2022-08-18T03:49:27.175Z,19.17
2022-08-18T03:51:21.515Z,19.90
2022-08-18T03:53:12.282Z,24.95
2022-08-18T03:55:03.403Z,22.65
2022-08-18T03:56:54.342Z,21.75
2022-08-18T03:58:47.609Z,19.83
2022-08-18T04:00:39.164Z,18.05
2022-08-18T04:02:29.799Z,17.92
2022-08-18T04:04:23.377Z,21.33
2022-08-18T04:06:17.646Z,24.33
2022-08-18T04:08:21.274Z,19.75
2022-08-18T04:10:16.251Z,20.90
2022-08-18T04:12:16.198Z,19.42
2022-08-18T04:14:07.258Z,19.85
2022-08-18T04:15:59.871Z,19.25
2022-08-18T04:19:57.261Z,23.05
2022-08-18T04:21:52.682Z,24.42
2022-08-18T04:23:44.413Z,24.85
2022-08-18T04:25:34.926Z,22.23
2022-08-18T04:27:25.657Z,21.70
2022-08-18T04:29:20.208Z,22.88
2022-08-18T04:31:14.929Z,20.88
2022-08-18T04:33:05.655Z,20.77
2022-08-18T04:34:56.849Z,26.05
2022-08-18T04:36:50.777Z,23.10
2022-08-18T04:38:44.035Z,23.58
2022-08-18T04:40:34.903Z,26.25
2022-08-18T04:42:26.035Z,20.05
2022-08-18T04:44:17.202Z,21.08
2022-08-18T04:46:08.854Z,18.70
2022-08-18T04:47:59.345Z,21.42
2022-08-18T04:49:50.185Z,27.67
2022-08-18T04:52:30.879Z,27.10
2022-08-18T04:53:57.070Z,25.48
2022-08-18T04:55:49.202Z,28.45
2022-08-18T04:57:39.942Z,28.65
2022-08-18T04:59:30.411Z,27.98
2022-08-18T05:01:24.607Z,23.10
2022-08-18T05:03:15.104Z,23.75
2022-08-18T05:05:07.527Z,19.77
2022-08-18T05:08:48.736Z,23.38
2022-08-18T05:10:40.917Z,27.65
2022-08-18T05:12:31.716Z,34.50
2022-08-18T05:14:22.527Z,36.78
2022-08-18T05:16:18.025Z,31.00
2022-08-18T05:18:10.939Z,25.38
2022-08-18T05:20:07.607Z,33.85
2022-08-18T05:21:59.893Z,28.40
2022-08-18T05:23:52.235Z,33.80
2022-08-18T05:25:44.312Z,27.67
2022-08-18T05:27:38.466Z,23.65
2022-08-18T05:29:30.857Z,25.48
2022-08-18T05:31:28.045Z,23.60
2022-08-18T05:33:18.745Z,27.65
2022-08-18T05:35:16.537Z,30.00
2022-08-18T05:37:24.592Z,27.20
2022-08-18T05:39:23.696Z,25.40
2022-08-18T05:41:22.828Z,27.25
2022-08-18T05:43:14.528Z,31.63
2022-08-18T05:45:11.598Z,26.80
2022-08-18T05:47:08.550Z,26.13
2022-08-18T05:48:59.517Z,23.08
2022-08-18T05:50:51.604Z,26.88
2022-08-18T05:54:42.867Z,28.75
2022-08-18T05:56:38.237Z,23.10
2022-08-18T05:58:33.877Z,23.15
2022-08-18T06:00:25.556Z,20.90
2022-08-18T06:02:32.261Z,23.38
2022-08-18T06:04:33.693Z,22.58
2022-08-18T06:06:28.096Z,22.63
2022-08-18T06:08:24.660Z,24.77
2022-08-18T06:10:16.278Z,19.67
2022-08-18T06:12:19.416Z,22.38
2022-08-18T06:14:10.592Z,27.50
2022-08-18T06:16:12.762Z,26.33
2022-08-18T06:18:36.627Z,28.98
2022-08-18T06:20:33.732Z,25.20
2022-08-18T06:22:32.879Z,30.27
2022-08-18T06:24:36.134Z,26.42
2022-08-18T06:26:36.185Z,25.15
2022-08-18T06:28:42.547Z,24.73
2022-08-18T06:30:50.201Z,22.92
2022-08-18T06:33:00.651Z,20.77
2022-08-18T06:35:09.941Z,21.33
2022-08-18T06:37:11.217Z,18.70
2022-08-18T06:39:11.598Z,19.17
2022-08-18T06:41:40.625Z,17.40
2022-08-18T06:43:24.099Z,30.30
2022-08-18T06:45:18.738Z,17.50
2022-08-18T06:47:15.472Z,22.42
2022-08-18T06:49:10.269Z,18.45
2022-08-18T06:51:06.639Z,16.48
2022-08-18T06:52:59.621Z,11.90
2022-08-18T06:54:52.040Z,13.88
2022-08-18T06:58:41.848Z,13.68
2022-08-18T07:00:36.294Z,16.92
2022-08-18T07:02:52.360Z,15.25
2022-08-18T07:04:58.256Z,14.60
2022-08-18T07:06:49.506Z,14.43
2022-08-18T07:08:42.261Z,17.98
2022-08-18T07:10:36.402Z,12.45
2022-08-18T07:12:32.890Z,12.60
2022-08-18T07:14:24.393Z,12.38
2022-08-18T07:16:56.569Z,13.52
2022-08-18T07:18:42.058Z,10.90
2022-08-18T07:20:44.993Z,9.10
2022-08-18T07:22:56.303Z,9.80
2022-08-18T07:24:49.971Z,9.73
2022-08-18T07:27:00.392Z,10.27
2022-08-18T07:28:52.909Z,10.82
2022-08-18T07:33:05.640Z,7.40
2022-08-18T07:35:02.043Z,10.52
2022-08-18T07:37:02.098Z,9.48
2022-08-18T07:38:58.623Z,13.93
2022-08-18T07:40:59.381Z,10.93
2022-08-18T07:43:01.606Z,7.65
2022-08-18T07:45:02.747Z,10.10
2022-08-18T07:47:00.414Z,8.45
2022-08-18T07:48:52.804Z,8.63
2022-08-18T07:50:57.983Z,8.77
2022-08-18T07:53:04.978Z,9.95
2022-08-18T07:55:10.839Z,11.05
2022-08-18T07:57:14.248Z,13.20
2022-08-18T07:59:17.814Z,11.07
2022-08-18T08:01:33.628Z,10.48
2022-08-18T08:03:36.545Z,7.65
2022-08-18T08:07:40.926Z,5.60
2022-08-18T08:09:51.612Z,11.50
2022-08-18T08:11:54.570Z,6.18
2022-08-18T08:14:00.879Z,9.38
2022-08-18T08:16:02.708Z,7.68
2022-08-18T08:18:04.864Z,7.13
2022-08-18T08:20:17.979Z,6.68
2022-08-18T08:22:19.403Z,5.38
2022-08-18T08:24:17.336Z,6.90
2022-08-18T08:26:36.445Z,7.20
2022-08-18T08:28:42.695Z,10.35
2022-08-18T08:30:42.213Z,8.25
2022-08-18T08:32:37.542Z,6.50
2022-08-18T08:34:37.775Z,6.43
2022-08-18T08:36:34.397Z,4.88
2022-08-18T08:38:43.083Z,4.72
2022-08-18T08:40:46.871Z,13.10
2022-08-18T08:42:44.846Z,5.82
2022-08-18T08:44:58.355Z,5.82
2022-08-18T08:46:58.821Z,8.05
2022-08-18T08:48:56.587Z,5.15
2022-08-18T08:50:53.413Z,5.72
2022-08-18T08:52:56.724Z,5.25
2022-08-18T08:54:53.505Z,3.90
2022-08-18T08:56:48.977Z,9.25
2022-08-18T08:58:46.519Z,6.68
2022-08-18T09:00:39.707Z,8.73
2022-08-18T09:03:07.835Z,7.28
2022-08-18T09:05:09.834Z,8.40
2022-08-18T09:07:21.162Z,5.60
2022-08-18T09:09:44.909Z,7.80
2022-08-18T09:12:13.279Z,5.40
2022-08-18T09:14:54.586Z,3.97
2022-08-18T09:17:00.800Z,7.55
2022-08-18T09:19:21.647Z,3.95
2022-08-18T09:21:29.334Z,6.78
2022-08-18T09:23:24.608Z,4.55
2022-08-18T09:25:34.713Z,6.97
2022-08-18T09:28:07.360Z,4.28
2022-08-18T09:29:55.580Z,4.38
2022-08-18T09:31:47.337Z,4.65
2022-08-18T09:34:03.692Z,6.43
2022-08-18T09:36:20.167Z,5.38
2022-08-18T09:40:59.388Z,5.47
2022-08-18T09:42:52.653Z,4.50
2022-08-18T09:45:05.361Z,3.58
2022-08-18T09:47:01.333Z,8.07
2022-08-18T09:49:47.974Z,4.00
2022-08-18T09:51:42.391Z,4.25
2022-08-18T09:53:54.433Z,3.70
2022-08-18T09:56:01.315Z,4.18
2022-08-18T09:58:17.705Z,3.70
2022-08-18T10:00:30.888Z,8.07
2022-08-18T10:03:12.145Z,5.43
2022-08-18T10:05:28.152Z,4.03
2022-08-18T10:07:36.974Z,5.20
2022-08-18T10:09:43.996Z,4.80
2022-08-18T10:11:52.783Z,7.13
2022-08-18T10:14:07.978Z,8.30
2022-08-18T10:16:14.746Z,11.75
2022-08-18T10:18:30.039Z,8.75
2022-08-18T10:20:36.626Z,9.02
2022-08-18T10:22:41.811Z,7.53
2022-08-18T10:24:41.234Z,6.28
2022-08-18T10:27:36.691Z,7.53
2022-08-18T10:29:55.907Z,6.85
2022-08-18T10:32:36.486Z,6.63
2022-08-18T10:34:40.487Z,6.65
2022-08-18T10:36:50.927Z,9.82
2022-08-18T10:38:52.313Z,8.30
2022-08-18T10:40:55.966Z,9.50
2022-08-18T10:42:57.762Z,16.42
2022-08-18T10:46:50.683Z,7.22
2022-08-18T10:48:41.156Z,11.52
2022-08-18T10:50:39.628Z,9.15
2022-08-18T10:53:16.966Z,7.55
2022-08-18T10:55:48.098Z,7.85
2022-08-18T10:58:11.608Z,7.50
2022-08-18T11:00:10.220Z,11.93
2022-08-18T11:02:19.857Z,10.23
2022-08-18T11:04:34.760Z,11.80
2022-08-18T11:06:28.887Z,10.63
2022-08-18T11:08:21.988Z,7.05
2022-08-18T11:10:30.585Z,8.77
2022-08-18T11:12:58.696Z,7.43
2022-08-18T11:15:21.165Z,6.60
2022-08-18T11:17:30.994Z,7.47
2022-08-18T11:19:27.601Z,9.02
2022-08-18T11:21:32.301Z,7.82
2022-08-18T11:23:24.468Z,7.63
2022-08-18T11:25:24.995Z,7.43
2022-08-18T11:27:23.358Z,8.32
2022-08-18T11:29:25.235Z,5.82
2022-08-18T11:31:16.413Z,10.68
2022-08-18T11:33:22.848Z,12.65
2022-08-18T11:35:19.156Z,8.48
2022-08-18T11:37:24.205Z,10.95
2022-08-18T11:39:15.076Z,6.50
2022-08-18T11:41:18.014Z,6.32
2022-08-18T11:43:15.220Z,5.57
2022-08-18T11:45:17.805Z,8.20
2022-08-18T11:47:20.409Z,6.13
2022-08-18T11:49:30.787Z,6.40
2022-08-18T11:51:32.855Z,7.82
2022-08-18T11:53:35.866Z,8.20
2022-08-18T11:55:32.112Z,8.68
2022-08-18T11:57:49.432Z,5.45
2022-08-18T12:01:56.717Z,4.82
2022-08-18T12:03:48.372Z,6.47
2022-08-18T12:05:54.168Z,6.03
2022-08-18T12:07:57.096Z,6.53
2022-08-18T12:10:17.386Z,4.40
2022-08-18T12:12:28.160Z,4.85
2022-08-18T12:14:29.838Z,6.00
2022-08-18T12:16:39.681Z,5.03
2022-08-18T12:18:30.571Z,3.72
2022-08-18T12:22:36.811Z,6.33
2022-08-18T12:24:34.459Z,5.57
2022-08-18T12:26:38.241Z,4.10
2022-08-18T12:28:30.488Z,4.45
2022-08-18T12:30:21.843Z,4.03
2022-08-18T12:32:18.305Z,5.80
2022-08-18T12:34:26.582Z,3.85
2022-08-18T12:36:19.002Z,6.55
2022-08-18T12:38:14.389Z,4.97
2022-08-18T12:40:08.637Z,5.40
2022-08-18T12:41:59.668Z,5.47
2022-08-18T12:43:58.889Z,4.35
2022-08-18T12:45:53.738Z,6.57
2022-08-18T12:47:44.329Z,7.18
2022-08-18T12:49:35.094Z,7.78
2022-08-18T12:51:30.756Z,9.00
2022-08-18T12:53:30.588Z,5.68
2022-08-18T12:55:43.613Z,6.65
2022-08-18T12:57:51.909Z,9.23
2022-08-18T12:59:44.041Z,6.40
2022-08-18T13:03:30.677Z,7.95
2022-08-18T13:05:29.711Z,7.88
2022-08-18T13:07:20.722Z,5.10
2022-08-18T13:11:14.703Z,5.15
2022-08-18T13:13:13.219Z,8.77
2022-08-18T13:15:17.078Z,9.00
2022-08-18T13:17:29.528Z,7.43
2022-08-18T13:19:35.483Z,10.15
2022-08-18T13:21:45.207Z,6.85
2022-08-18T13:23:48.639Z,6.60
2022-08-18T13:25:59.466Z,7.50
2022-08-18T13:28:06.362Z,9.82
2022-08-18T13:30:30.370Z,7.07
2022-08-18T13:32:47.173Z,8.00
2022-08-18T13:35:13.302Z,6.95
2022-08-18T13:37:18.341Z,6.72
2022-08-18T13:39:31.423Z,7.30
2022-08-18T13:41:42.141Z,6.30
2022-08-18T13:43:49.137Z,5.88
2022-08-18T13:45:57.268Z,6.07
2022-08-18T13:48:02.149Z,10.27
2022-08-18T13:50:14.101Z,8.48
2022-08-18T13:52:33.412Z,9.10
2022-08-18T13:54:41.294Z,8.05
2022-08-18T13:56:51.546Z,7.25
2022-08-18T13:58:53.268Z,9.35
2022-08-18T14:01:39.788Z,7.07
2022-08-18T14:03:30.703Z,8.52
2022-08-18T14:05:51.300Z,8.48
2022-08-18T14:07:56.783Z,9.57
2022-08-18T14:09:48.206Z,6.30
2022-08-18T14:11:41.798Z,12.07
2022-08-18T14:13:38.358Z,8.55
2022-08-18T14:15:35.613Z,12.90
2022-08-18T14:17:27.183Z,8.88
2022-08-18T14:19:18.234Z,8.57
2022-08-18T14:21:14.896Z,6.40
2022-08-18T14:23:07.296Z,8.27
2022-08-18T14:24:58.211Z,10.02
2022-08-18T14:26:49.989Z,7.88
2022-08-18T14:28:42.899Z,8.77
2022-08-18T14:30:33.516Z,11.85
2022-08-18T14:32:29.862Z,7.03
2022-08-18T14:34:21.632Z,8.52
2022-08-18T14:36:18.114Z,8.68
2022-08-18T14:38:09.923Z,10.80
2022-08-18T14:40:01.803Z,16.10
2022-08-18T14:41:55.817Z,7.35
2022-08-18T14:44:10.946Z,9.60
2022-08-18T14:45:59.979Z,9.60
2022-08-18T14:47:51.739Z,10.60
2022-08-18T14:49:48.129Z,7.50
2022-08-18T14:51:38.959Z,8.40
2022-08-18T14:53:33.374Z,12.13
2022-08-18T14:55:25.526Z,9.00
2022-08-18T14:59:16.213Z,9.27
2022-08-18T15:01:10.750Z,7.13
2022-08-18T15:04:57.831Z,7.80
2022-08-18T15:06:56.140Z,9.10
2022-08-18T15:08:47.605Z,11.65
2022-08-18T15:10:38.628Z,8.48
2022-08-18T15:12:29.455Z,11.50
2022-08-18T15:14:21.958Z,15.25
2022-08-18T15:16:27.153Z,10.52
2022-08-18T15:18:23.700Z,9.70
2022-08-18T15:20:17.688Z,8.82
2022-08-18T15:22:08.271Z,12.45
2022-08-18T15:24:01.621Z,6.35
2022-08-18T15:25:52.815Z,8.98
2022-08-18T15:27:46.073Z,11.25
2022-08-18T15:29:44.828Z,12.43
2022-08-18T15:31:55.456Z,10.35
2022-08-18T15:33:50.224Z,9.15
2022-08-18T15:35:44.429Z,9.80
2022-08-18T15:37:38.625Z,11.27
2022-08-18T15:39:34.832Z,7.85
2022-08-18T15:41:33.207Z,9.43
2022-08-18T15:43:29.142Z,11.43
2022-08-18T15:45:28.302Z,15.48
2022-08-18T15:47:27.555Z,7.65
2022-08-18T15:49:19.146Z,10.80
2022-08-18T15:51:13.504Z,7.85
2022-08-18T15:53:09.183Z,7.22
2022-08-18T15:55:02.595Z,13.55
2022-08-18T15:56:55.920Z,10.20
2022-08-18T15:58:49.956Z,9.80
2022-08-18T16:00:47.289Z,7.60
2022-08-18T16:02:40.962Z,7.63
2022-08-18T16:04:35.602Z,7.53
2022-08-18T16:06:32.163Z,9.73
2022-08-18T16:08:25.527Z,6.90
2022-08-18T16:10:20.808Z,8.50
2022-08-18T16:12:11.823Z,8.18
2022-08-18T16:14:02.700Z,8.52
2022-08-18T16:15:55.249Z,6.82
2022-08-18T16:17:46.224Z,7.53
2022-08-18T16:19:38.785Z,9.57
2022-08-18T16:21:32.167Z,9.18
2022-08-18T16:23:23.687Z,7.97
2022-08-18T16:25:17.852Z,7.55
2022-08-18T16:27:08.896Z,5.97
2022-08-18T16:29:01.769Z,7.35
2022-08-18T16:30:54.090Z,10.45
2022-08-18T16:32:45.145Z,8.23
2022-08-18T16:34:42.288Z,11.02
2022-08-18T16:36:34.272Z,7.80
2022-08-18T16:38:32.352Z,11.63
2022-08-18T16:40:24.281Z,9.30
2022-08-18T16:42:19.165Z,9.00
2022-08-18T16:44:09.703Z,10.27
2022-08-18T16:46:02.291Z,8.85
2022-08-18T16:47:54.427Z,9.90
2022-08-18T16:49:58.520Z,9.73
2022-08-18T16:51:49.555Z,7.72
2022-08-18T16:53:40.711Z,8.05
2022-08-18T16:55:31.975Z,7.57
2022-08-18T16:57:23.920Z,6.53
2022-08-18T16:59:34.781Z,8.90
2022-08-18T17:01:26.936Z,9.07
2022-08-18T17:03:25.003Z,7.40
2022-08-18T17:05:16.132Z,9.88
2022-08-18T17:07:07.480Z,7.57
2022-08-18T17:09:00.891Z,5.65
2022-08-18T17:11:01.365Z,7.90
2022-08-18T17:12:53.463Z,8.18
2022-08-18T17:14:44.675Z,8.20
2022-08-18T17:16:38.418Z,10.00
2022-08-18T17:18:31.550Z,11.60
2022-08-18T17:20:28.393Z,6.20
2022-08-18T17:22:19.610Z,5.90
2022-08-18T17:24:11.553Z,7.82
2022-08-18T17:26:03.833Z,4.93
2022-08-18T17:27:54.987Z,10.82
2022-08-18T17:29:57.161Z,7.03
2022-08-18T17:31:58.871Z,7.70
2022-08-18T17:33:54.975Z,7.43
2022-08-18T17:35:47.153Z,6.40
2022-08-18T17:37:43.895Z,6.70
2022-08-18T17:39:40.920Z,6.07
2022-08-18T17:41:33.496Z,7.32
2022-08-18T17:43:30.567Z,6.45
2022-08-18T17:45:27.892Z,6.07
2022-08-18T17:47:25.863Z,7.13
2022-08-18T17:49:33.118Z,8.63
2022-08-18T17:51:31.331Z,8.52
2022-08-18T17:53:24.915Z,7.47
2022-08-18T17:55:26.583Z,7.05
2022-08-18T17:57:29.329Z,7.53
2022-08-18T17:59:45.691Z,7.43
2022-08-18T18:01:40.851Z,10.48
2022-08-18T18:05:28.616Z,4.45
2022-08-18T18:07:28.946Z,5.32
2022-08-18T18:09:30.809Z,7.45
2022-08-18T18:11:28.502Z,8.57
2022-08-18T18:13:27.787Z,10.35
2022-08-18T18:15:32.913Z,7.32
2022-08-18T18:17:28.949Z,8.43
2022-08-18T18:19:25.159Z,6.80
2022-08-18T18:21:21.851Z,7.60
2022-08-18T18:23:19.031Z,6.80
2022-08-18T18:25:13.141Z,7.00
2022-08-18T18:27:30.134Z,6.55
2022-08-18T18:29:29.479Z,5.97
2022-08-18T18:31:25.676Z,9.82
2022-08-18T18:33:24.848Z,9.05
2022-08-18T18:35:54.281Z,7.85
2022-08-18T18:37:54.584Z,9.45
2022-08-18T18:39:55.943Z,6.45
2022-08-18T18:41:48.605Z,8.35
2022-08-18T18:43:42.406Z,8.63
2022-08-18T18:45:34.709Z,9.48
2022-08-18T18:47:54.833Z,11.18
2022-08-18T18:49:55.698Z,11.35
2022-08-18T18:52:11.216Z,6.45
2022-08-18T18:54:20.772Z,11.77
2022-08-18T18:56:29.619Z,13.10
2022-08-18T18:58:32.186Z,10.75
2022-08-18T19:00:29.631Z,8.57
2022-08-18T19:02:36.935Z,12.63
2022-08-18T19:04:36.813Z,6.13
2022-08-18T19:06:37.255Z,9.45
2022-08-18T19:08:40.223Z,14.98
2022-08-18T19:10:40.773Z,10.02
2022-08-18T19:12:43.468Z,11.32
2022-08-18T19:14:41.846Z,5.57
2022-08-18T19:16:38.607Z,9.75
2022-08-18T19:18:38.558Z,9.35
2022-08-18T19:20:39.385Z,9.93
2022-08-18T19:22:40.069Z,8.98
2022-08-18T19:24:34.216Z,8.15
2022-08-18T19:26:33.372Z,6.78
2022-08-18T19:28:59.790Z,8.07
2022-08-18T19:30:54.519Z,5.78
2022-08-18T19:32:52.034Z,10.45
2022-08-18T19:34:51.351Z,8.27
2022-08-18T19:36:52.077Z,10.55
2022-08-18T19:38:59.246Z,8.63
2022-08-18T19:40:59.143Z,8.38
2022-08-18T19:42:56.886Z,13.02
2022-08-18T19:45:15.407Z,6.43
2022-08-18T19:47:16.675Z,7.05
2022-08-18T19:49:22.459Z,5.93
2022-08-18T19:51:21.591Z,10.98
2022-08-18T19:53:39.556Z,10.60
2022-08-18T19:55:48.474Z,9.05
2022-08-18T19:58:09.849Z,7.47
2022-08-18T20:00:22.630Z,8.65
2022-08-18T20:02:38.067Z,12.02
2022-08-18T20:04:50.729Z,5.75
2022-08-18T20:07:11.581Z,9.52
2022-08-18T20:09:24.535Z,6.72
2022-08-18T20:11:56.939Z,10.25
2022-08-18T20:13:54.163Z,9.35
2022-08-18T20:16:12.317Z,7.60
2022-08-18T20:18:21.499Z,8.15
2022-08-18T20:20:16.438Z,5.43
2022-08-18T20:22:16.263Z,9.13
2022-08-18T20:24:49.953Z,9.35
2022-08-18T20:26:48.483Z,12.13
2022-08-18T20:28:41.275Z,8.35
2022-08-18T20:30:58.018Z,12.98
2022-08-18T20:33:29.487Z,13.10
2022-08-18T20:35:26.340Z,11.65
2022-08-18T20:37:25.406Z,16.15
2022-08-18T20:39:40.724Z,13.10
2022-08-18T20:41:45.304Z,12.25
2022-08-18T20:43:43.065Z,14.85
2022-08-18T20:45:36.753Z,11.32
2022-08-18T20:47:59.492Z,12.18
2022-08-18T20:50:24.699Z,11.27
2022-08-18T20:52:32.628Z,11.40
2022-08-18T20:54:58.160Z,14.75
2022-08-18T20:57:00.149Z,12.30
2022-08-18T20:59:00.577Z,12.80
2022-08-18T21:00:56.206Z,14.93
2022-08-18T21:02:49.973Z,14.25
2022-08-18T21:04:52.596Z,11.32
2022-08-18T21:06:44.539Z,13.98
2022-08-18T21:08:38.654Z,10.55
2022-08-18T21:10:32.014Z,12.68
2022-08-18T21:12:29.944Z,16.42
2022-08-18T21:14:31.746Z,14.85
2022-08-18T21:16:41.927Z,16.85
2022-08-18T21:18:33.114Z,11.88
2022-08-18T21:20:26.744Z,16.33
2022-08-18T21:22:19.274Z,12.23
2022-08-18T21:24:27.872Z,10.75
2022-08-18T21:26:22.593Z,14.68
2022-08-18T21:28:14.992Z,11.10
2022-08-18T21:30:16.478Z,11.43
2022-08-18T21:32:16.417Z,11.98
2022-08-18T21:34:12.093Z,10.25
2022-08-18T21:36:11.696Z,11.00
2022-08-18T21:38:06.241Z,11.57
2022-08-18T21:39:59.889Z,13.60
2022-08-18T21:41:56.296Z,17.55
2022-08-18T21:43:50.518Z,18.20
2022-08-18T21:45:47.745Z,14.20
2022-08-18T21:47:49.156Z,13.60
2022-08-18T21:49:40.258Z,12.90
2022-08-18T21:51:44.446Z,11.20
2022-08-18T21:53:36.373Z,12.88
2022-08-18T21:55:32.777Z,13.38
2022-08-18T21:57:27.065Z,13.02
2022-08-18T21:59:20.321Z,9.23
2022-08-18T22:01:20.404Z,16.15
2022-08-18T22:03:22.820Z,13.80
2022-08-18T22:05:27.009Z,12.20
2022-08-18T22:07:35.318Z,17.40
2022-08-18T22:09:30.448Z,9.90
2022-08-18T22:11:43.540Z,9.70
2022-08-18T22:13:50.238Z,14.73
2022-08-18T22:15:44.366Z,14.38
2022-08-18T22:17:49.749Z,12.00
2022-08-18T22:19:42.988Z,18.60
2022-08-18T22:23:37.903Z,12.52
2022-08-18T22:25:32.374Z,11.90
2022-08-18T22:27:26.608Z,9.13
2022-08-18T22:29:28.326Z,11.30
2022-08-18T22:31:21.590Z,11.85
2022-08-18T22:33:12.444Z,8.75
2022-08-18T22:35:07.096Z,12.27
2022-08-18T22:37:01.367Z,9.65
2022-08-18T22:38:52.366Z,10.23
2022-08-18T22:40:42.983Z,12.20
2022-08-18T22:42:34.780Z,11.30
2022-08-18T22:44:26.658Z,12.07
2022-08-18T22:46:21.536Z,10.50
2022-08-18T22:48:16.355Z,13.38
2022-08-18T22:50:10.078Z,13.93
2022-08-18T22:52:00.868Z,14.23
2022-08-18T22:53:51.802Z,15.20
2022-08-18T22:55:43.848Z,9.32
2022-08-18T22:57:36.606Z,10.38
2022-08-18T22:59:29.186Z,11.30
2022-08-18T23:01:25.216Z,13.73
2022-08-18T23:03:18.830Z,14.52
2022-08-18T23:05:11.533Z,11.25
2022-08-18T23:07:02.650Z,9.55
2022-08-18T23:08:55.841Z,13.63
2022-08-18T23:10:48.055Z,12.27
2022-08-18T23:12:38.865Z,11.85
2022-08-18T23:14:29.944Z,11.43
2022-08-18T23:16:30.626Z,14.57
2022-08-18T23:20:19.352Z,13.98
2022-08-18T23:22:11.178Z,13.18
2022-08-18T23:24:09.766Z,10.25
2022-08-18T23:26:00.759Z,17.65
2022-08-18T23:27:51.443Z,19.92
2022-08-18T23:29:42.421Z,13.50
2022-08-18T23:31:33.968Z,15.05
2022-08-18T23:33:26.165Z,14.47
2022-08-18T23:35:20.250Z,13.15
2022-08-18T23:37:12.223Z,19.25
2022-08-18T23:39:03.464Z,11.88
2022-08-18T23:40:55.745Z,11.10
2022-08-18T23:42:46.515Z,14.85
2022-08-18T23:44:38.098Z,10.32
2022-08-18T23:46:31.334Z,12.10
2022-08-18T23:48:22.169Z,13.90
2022-08-18T23:50:13.219Z,13.23
2022-08-18T23:52:05.645Z,15.90
2022-08-18T23:53:59.222Z,13.30
2022-08-18T23:55:51.575Z,16.55
2022-08-18T23:57:42.396Z,13.77
2022-08-18T23:59:34.991Z,10.98
